Time;durP1;ratioP1;P1;durP2;ratioP2;P2;SDS_P1;SDS_P2;PMS_P1;PMS_P2;Temp;Humidity;BMP_temperature;BMP_pressure;BME280_temperature;BME280_humidity;BME280_pressure;Samples;Min_cycle;Max_cycle;Signal;HPM_P1;HPM_P2
2023/06/21 00:00:30;;;;;;;11.80;9.32;;;;;;;22.67;80.76;98436.94;4992567;28;20029;-82
2023/06/21 00:02:57;;;;;;;12.55;9.10;;;;;;;22.63;80.70;98444.19;4977059;28;20029;-82
2023/06/21 00:05:22;;;;;;;12.82;10.10;;;;;;;22.68;80.32;98452.91;4980562;28;20050;-82
2023/06/21 00:07:49;;;;;;;11.50;9.65;;;;;;;22.57;80.56;98457.16;4991445;28;20112;-81
2023/06/21 00:10:14;;;;;;;11.48;10.30;;;;;;;22.55;80.64;98459.41;4977566;28;20041;-81
2023/06/21 00:12:40;;;;;;;12.85;10.35;;;;;;;22.49;80.96;98457.25;4996835;28;20037;-82
2023/06/21 00:15:07;;;;;;;11.05;9.60;;;;;;;22.43;80.68;98450.44;4992104;28;20086;-82
2023/06/21 00:17:32;;;;;;;14.90;10.95;;;;;;;22.35;80.90;98457.53;4994385;28;20570;-82
2023/06/21 00:19:57;;;;;;;10.85;9.63;;;;;;;22.33;81.30;98465.22;4990255;28;20030;-82
2023/06/21 00:22:23;;;;;;;13.05;10.55;;;;;;;22.30;81.22;98463.97;4995038;28;20034;-82
2023/06/21 00:24:49;;;;;;;14.23;10.82;;;;;;;22.24;81.21;98461.78;4996001;28;20076;-82
2023/06/21 00:27:15;;;;;;;12.70;10.95;;;;;;;22.33;80.53;98457.88;4976451;28;20045;-82
2023/06/21 00:29:40;;;;;;;12.88;10.13;;;;;;;22.25;80.60;98456.03;4992403;28;20030;-82
2023/06/21 00:32:06;;;;;;;13.55;10.55;;;;;;;22.16;81.35;98466.19;4976549;28;20030;-82
2023/06/21 00:34:31;;;;;;;15.52;10.25;;;;;;;22.06;81.30;98450.25;4991183;28;20487;-82
2023/06/21 00:36:57;;;;;;;20.80;11.05;;;;;;;21.93;81.42;98464.94;4991504;28;20042;-82
2023/06/21 00:39:22;;;;;;;11.52;10.20;;;;;;;21.88;81.74;98473.28;4980042;28;20121;-81
2023/06/21 00:41:48;;;;;;;11.93;9.15;;;;;;;21.86;81.31;98472.84;4978262;28;20045;-81
2023/06/21 00:44:13;;;;;;;11.48;9.65;;;;;;;21.77;81.16;98469.34;4977854;28;20065;-82
2023/06/21 00:46:39;;;;;;;10.30;9.23;;;;;;;21.85;81.10;98471.22;4961862;28;20034;-82
2023/06/21 00:49:04;;;;;;;14.43;9.20;;;;;;;21.83;80.90;98475.41;4961507;28;20035;-82
2023/06/21 00:51:32;;;;;;;9.13;8.23;;;;;;;21.74;81.16;98486.28;4980267;28;20121;-82
2023/06/21 00:53:58;;;;;;;12.10;9.30;;;;;;;21.74;81.14;98486.28;4976722;28;20038;-81
2023/06/21 00:56:24;;;;;;;13.32;8.93;;;;;;;21.77;81.43;98484.84;4974308;28;20481;-82
2023/06/21 00:58:49;;;;;;;10.65;7.80;;;;;;;21.75;80.82;98485.19;4974741;28;20038;-82
2023/06/21 01:01:14;;;;;;;10.05;8.13;;;;;;;21.76;80.84;98481.31;4973040;28;20027;-82
2023/06/21 01:03:40;;;;;;;15.48;8.55;;;;;;;21.70;80.41;98473.69;4989319;28;20453;-82
2023/06/21 01:06:22;;;;;;;9.40;8.43;;;;;;;21.61;80.91;98471.84;4975176;28;20129;-82
2023/06/21 01:09:13;;;;;;;11.65;7.65;;;;;;;21.64;80.98;98465.72;4974393;28;20425;-82
2023/06/21 01:12:09;;;;;;;18.27;9.02;;;;;;;21.74;80.28;98475.44;4994477;28;20494;-82
2023/06/21 01:14:59;;;;;;;10.32;7.97;;;;;;;21.78;80.51;98491.84;4980101;28;20544;-82
2023/06/21 01:17:31;;;;;;;9.02;7.43;;;;;;;21.67;80.27;98489.53;4970032;28;20022;-82
2023/06/21 01:19:57;;;;;;;11.70;8.00;;;;;;;21.47;81.10;98482.13;4972117;28;20111;-82
2023/06/21 01:22:55;;;;;;;11.50;6.90;;;;;;;21.55;81.22;98491.38;4972406;28;20027;-82
2023/06/21 01:25:27;;;;;;;12.05;7.45;;;;;;;21.50;81.00;98488.84;4972417;28;20161;-82
2023/06/21 01:28:20;;;;;;;10.07;7.93;;;;;;;21.45;80.94;98489.81;4971745;28;20038;-82
2023/06/21 01:30:47;;;;;;;9.68;8.68;;;;;;;21.09;80.99;98475.94;4975592;28;20486;-82
2023/06/21 01:33:13;;;;;;;7.28;6.57;;;;;;;21.32;81.03;98473.75;4973152;28;20132;-82
2023/06/21 01:35:39;;;;;;;14.82;7.72;;;;;;;21.41;80.64;98483.47;4981190;28;21431;-82
2023/06/21 01:38:05;;;;;;;10.52;7.90;;;;;;;21.27;79.82;98487.53;4974729;28;20081;-82
2023/06/21 01:40:31;;;;;;;9.10;7.68;;;;;;;21.05;82.47;98487.78;4945320;28;20566;-82
2023/06/21 01:42:56;;;;;;;14.93;6.78;;;;;;;21.21;80.53;98478.00;4970710;28;20027;-82
2023/06/21 01:45:23;;;;;;;9.30;6.70;;;;;;;21.38;80.53;98484.09;4974543;28;20050;-82
2023/06/21 01:47:50;;;;;;;12.00;7.38;;;;;;;21.38;80.31;98473.25;4975087;28;20058;-82
2023/06/21 01:50:16;;;;;;;9.68;7.53;;;;;;;21.23;80.07;98473.78;4975506;28;20479;-82
2023/06/21 01:52:42;;;;;;;12.05;7.45;;;;;;;21.44;79.62;98473.88;4973542;28;20037;-82
2023/06/21 01:55:09;;;;;;;17.98;8.27;;;;;;;21.39;79.69;98471.31;4975966;28;20053;-82
2023/06/21 01:57:35;;;;;;;9.82;7.25;;;;;;;21.04;80.74;98464.47;4990020;28;20194;-82
2023/06/21 02:00:16;;;;;;;10.68;6.90;;;;;;;21.17;80.76;98472.41;4989229;28;20574;-82
2023/06/21 02:02:54;;;;;;;12.55;7.30;;;;;;;21.16;80.01;98470.03;4985178;28;20069;-82
2023/06/21 02:05:20;;;;;;;13.27;6.88;;;;;;;21.27;79.64;98479.38;4983850;28;20521;-82
2023/06/21 02:07:47;;;;;;;11.23;6.85;;;;;;;21.08;79.92;98468.91;4990468;28;20034;-82
2023/06/21 02:10:18;;;;;;;10.27;6.63;;;;;;;21.19;79.60;98469.34;4989023;28;20037;-82
2023/06/21 02:12:48;;;;;;;11.30;7.22;;;;;;;21.06;79.93;98473.06;4985364;28;20040;-82
2023/06/21 02:15:15;;;;;;;13.18;7.03;;;;;;;21.09;79.64;98475.94;4981826;28;20030;-82
2023/06/21 02:17:41;;;;;;;16.35;7.20;;;;;;;21.17;79.37;98482.44;4986709;28;20034;-82
2023/06/21 02:20:13;;;;;;;18.60;7.68;;;;;;;21.00;79.51;98466.22;4995692;28;21345;-82
2023/06/21 02:22:42;;;;;;;18.17;7.30;;;;;;;20.90;78.71;98472.81;4983364;28;20030;-82
2023/06/21 02:25:11;;;;;;;14.88;7.15;;;;;;;20.90;79.71;98467.38;4996134;28;21594;-82
2023/06/21 02:27:37;;;;;;;9.98;6.80;;;;;;;21.01;79.56;98467.81;4986942;28;20486;-82
2023/06/21 02:30:04;;;;;;;10.27;6.15;;;;;;;20.93;79.76;98472.94;4995296;28;20081;-82
2023/06/21 02:32:30;;;;;;;10.98;7.30;;;;;;;20.93;79.67;98486.50;4976240;28;20620;-82
2023/06/21 02:34:55;;;;;;;13.02;8.15;;;;;;;20.88;79.75;98481.25;4975866;28;20038;-82
2023/06/21 02:37:20;;;;;;;13.35;7.13;;;;;;;20.80;79.93;98495.66;4973088;28;20038;-82
2023/06/21 02:39:46;;;;;;;13.95;7.95;;;;;;;20.55;79.98;98495.72;4960411;28;20117;-82
2023/06/21 02:42:11;;;;;;;12.63;8.27;;;;;;;20.57;80.87;98499.69;4962063;28;20042;-82
2023/06/21 02:44:36;;;;;;;17.10;8.98;;;;;;;20.53;80.39;98512.28;4972661;28;20153;-82
2023/06/21 02:47:02;;;;;;;17.15;8.63;;;;;;;20.72;80.18;98507.31;4975651;28;20046;-82
2023/06/21 02:49:27;;;;;;;17.40;10.27;;;;;;;20.52;80.03;98518.84;4959492;28;20030;-82
2023/06/21 02:51:53;;;;;;;18.75;9.05;;;;;;;20.56;80.53;98519.00;4975327;28;20068;-83
2023/06/21 02:54:20;;;;;;;8.80;7.90;;;;;;;20.51;80.46;98516.47;4970001;28;20494;-82
2023/06/21 02:56:45;;;;;;;13.05;7.88;;;;;;;20.32;81.69;98530.34;4996447;28;20038;-82
2023/06/21 02:59:11;;;;;;;11.18;7.72;;;;;;;20.51;80.86;98527.31;4988520;28;20047;-82
2023/06/21 03:01:37;;;;;;;18.02;8.25;;;;;;;20.61;79.60;98532.38;4958107;28;20034;-82
2023/06/21 03:04:02;;;;;;;18.20;8.90;;;;;;;20.65;79.68;98553.13;4975486;28;20478;-83
2023/06/21 03:06:29;;;;;;;16.63;8.05;;;;;;;20.62;79.64;98548.34;4975237;28;20097;-82
2023/06/21 03:08:58;;;;;;;16.95;8.32;;;;;;;20.72;79.08;98558.06;4947114;28;20510;-82
2023/06/21 03:11:23;;;;;;;16.67;7.90;;;;;;;20.69;79.12;98573.06;4973289;28;20646;-82
2023/06/21 03:13:49;;;;;;;12.43;8.20;;;;;;;20.55;79.61;98572.41;4973787;28;20038;-82
2023/06/21 03:16:15;;;;;;;12.25;7.93;;;;;;;20.34;80.47;98584.22;4986517;28;20035;-82
2023/06/21 03:18:40;;;;;;;17.00;7.93;;;;;;;20.47;80.05;98578.66;4979538;28;20031;-82
2023/06/21 03:21:06;;;;;;;12.27;7.65;;;;;;;20.55;79.49;98585.19;4962475;28;21348;-82
2023/06/21 03:23:31;;;;;;;13.90;9.02;;;;;;;20.46;79.64;98592.53;4972117;28;20164;-81
2023/06/21 03:25:56;;;;;;;15.43;8.52;;;;;;;20.48;80.40;98590.31;4969327;28;20491;-81
2023/06/21 03:28:22;;;;;;;13.88;8.55;;;;;;;20.40;80.65;98600.00;4971071;28;20073;-82
2023/06/21 03:30:47;;;;;;;14.57;9.23;;;;;;;20.44;80.34;98603.72;4972354;28;20034;-82
2023/06/21 03:33:13;;;;;;;16.40;8.18;;;;;;;20.57;80.04;98610.09;4971724;28;20096;-82
2023/06/21 03:35:38;;;;;;;15.05;8.48;;;;;;;20.43;80.49;98602.09;4979750;28;20403;-82
2023/06/21 03:38:03;;;;;;;21.85;9.10;;;;;;;20.58;79.91;98620.59;4988802;28;20038;-82
2023/06/21 03:40:29;;;;;;;14.98;9.65;;;;;;;20.45;80.08;98628.88;4975473;28;20116;-82
2023/06/21 03:42:54;;;;;;;17.13;8.23;;;;;;;20.47;80.29;98615.81;4985184;28;20026;-81
2023/06/21 03:45:20;;;;;;;18.70;9.32;;;;;;;20.76;79.90;98633.06;4987732;28;20041;-82
2023/06/21 03:47:46;;;;;;;15.60;9.32;;;;;;;20.65;79.90;98636.41;4973300;28;20062;-82
2023/06/21 03:50:13;;;;;;;15.40;9.38;;;;;;;20.65;79.77;98633.69;4988432;28;20042;-82
2023/06/21 03:52:38;;;;;;;18.70;10.00;;;;;;;20.53;80.65;98638.97;4986909;28;20034;-82
2023/06/21 03:55:05;;;;;;;20.85;10.23;;;;;;;20.19;82.05;98632.34;4966926;28;20034;-82
2023/06/21 03:57:30;;;;;;;17.63;9.73;;;;;;;20.38;81.41;98645.63;4987290;28;20034;-82
2023/06/21 03:59:56;;;;;;;22.98;9.57;;;;;;;20.34;81.50;98650.09;4984243;28;20089;-82
2023/06/21 04:02:22;;;;;;;11.48;9.32;;;;;;;20.19;83.06;98645.09;4984982;28;20034;-81
2023/06/21 04:04:50;;;;;;;17.48;12.10;;;;;;;20.12;83.73;98655.59;4994919;28;20126;-82
2023/06/21 04:07:21;;;;;;;21.98;15.35;;;;;;;19.25;89.37;98650.09;4993061;28;20545;-82
2023/06/21 04:09:47;;;;;;;25.00;14.75;;;;;;;18.87;90.64;98657.78;4986092;28;20050;-81
2023/06/21 04:12:13;;;;;;;18.48;13.80;;;;;;;18.56;92.32;98662.31;4987765;28;20498;-81
2023/06/21 04:14:38;;;;;;;25.25;14.13;;;;;;;19.31;88.46;98662.38;4974335;28;20023;-82
2023/06/21 04:17:04;;;;;;;16.45;11.32;;;;;;;19.75;86.68;98659.63;4993218;28;20042;-82
2023/06/21 04:19:30;;;;;;;14.57;10.93;;;;;;;19.89;85.85;98683.91;4987900;28;20513;-81
2023/06/21 04:21:55;;;;;;;18.25;11.50;;;;;;;20.38;83.41;98685.53;4988672;28;20022;-82
2023/06/21 04:24:21;;;;;;;15.52;11.90;;;;;;;19.89;85.58;98690.13;4975653;28;20054;-81
2023/06/21 04:26:47;;;;;;;17.17;10.98;;;;;;;19.82;87.29;98691.66;4990863;28;20031;-82
2023/06/21 04:29:16;;;;;;;24.52;13.10;;;;;;;19.74;87.04;98697.84;4990758;28;20027;-82
2023/06/21 04:31:42;;;;;;;16.92;11.88;;;;;;;19.60;87.95;98683.59;4985084;28;20064;-83
2023/06/21 04:34:08;;;;;;;17.80;14.13;;;;;;;19.77;86.96;98689.09;4986138;28;20093;-82
2023/06/21 04:36:34;;;;;;;14.10;10.95;;;;;;;20.09;86.08;98691.47;4988446;28;20038;-83
2023/06/21 04:39:00;;;;;;;17.38;11.43;;;;;;;20.41;84.59;98701.94;4983903;28;20045;-83
2023/06/21 04:41:25;;;;;;;16.90;12.48;;;;;;;20.63;83.41;98707.25;4988156;28;20058;-83
2023/06/21 04:43:51;;;;;;;13.40;11.57;;;;;;;20.66;83.13;98703.88;4983840;28;20037;-83
2023/06/21 04:46:18;;;;;;;18.17;14.05;;;;;;;19.99;87.77;98708.78;4985501;28;20034;-82
2023/06/21 04:48:46;;;;;;;15.63;11.43;;;;;;;20.16;86.62;98713.47;4985996;28;20034;-82
2023/06/21 04:51:15;;;;;;;19.77;12.68;;;;;;;20.55;84.28;98709.94;4991550;28;20030;-83
2023/06/21 04:53:43;;;;;;;20.50;12.85;;;;;;;20.64;84.00;98714.25;5017860;23;20076;-74
2023/06/21 04:56:12;;;;;;;18.10;14.00;;;;;;;20.53;84.86;98718.38;5002632;28;20049;-74
2023/06/21 04:58:39;;;;;;;16.67;13.10;;;;;;;20.51;84.84;98712.47;5007268;28;20117;-74
2023/06/21 05:01:04;;;;;;;16.85;14.55;;;;;;;20.40;85.62;98713.88;4991741;28;20109;-75
2023/06/21 05:03:32;;;;;;;21.98;19.10;;;;;;;20.40;85.72;98713.88;4979067;28;20121;-75
2023/06/21 05:05:59;;;;;;;25.88;20.55;;;;;;;20.36;85.78;98712.91;4971392;28;20062;-74
2023/06/21 05:08:24;;;;;;;24.73;18.00;;;;;;;20.39;85.99;98719.63;4978832;28;20048;-74
2023/06/21 05:10:49;;;;;;;20.05;17.38;;;;;;;20.28;87.77;98721.84;4990104;28;20396;-75
2023/06/21 05:13:15;;;;;;;26.27;20.55;;;;;;;20.12;88.81;98726.06;4990856;28;20041;-74
2023/06/21 05:15:40;;;;;;;23.02;19.58;;;;;;;19.93;89.45;98722.78;4989340;28;20117;-74
2023/06/21 05:18:05;;;;;;;28.52;20.27;;;;;;;20.01;89.57;98716.59;4996788;28;20046;-75
2023/06/21 05:20:31;;;;;;;21.75;16.17;;;;;;;20.15;88.60;98722.72;5002044;28;20030;-76
2023/06/21 05:22:56;;;;;;;22.63;18.25;;;;;;;20.59;85.81;98727.19;4998219;28;20523;-74
2023/06/21 05:25:22;;;;;;;17.42;14.68;;;;;;;20.75;85.20;98729.09;4983020;28;20066;-74
2023/06/21 05:27:47;;;;;;;32.58;24.63;;;;;;;20.33;88.45;98724.41;4993036;28;20520;-74
2023/06/21 05:30:12;;;;;;;20.85;17.00;;;;;;;20.77;85.53;98732.31;4983738;28;20117;-74
2023/06/21 05:32:38;;;;;;;31.45;26.05;;;;;;;20.78;85.86;98733.09;5000589;28;20026;-75
2023/06/21 05:35:03;;;;;;;34.70;26.38;;;;;;;20.41;89.18;98726.34;4999543;28;20057;-74
2023/06/21 05:37:29;;;;;;;26.65;20.67;;;;;;;20.79;85.57;98735.50;4990730;28;20057;-75
2023/06/21 05:39:54;;;;;;;27.75;22.77;;;;;;;21.15;83.20;98737.94;4985930;28;20408;-74
2023/06/21 05:42:19;;;;;;;30.15;24.88;;;;;;;21.07;83.75;98737.94;4981720;28;20034;-74
2023/06/21 05:44:45;;;;;;;28.17;22.42;;;;;;;21.23;82.37;98739.06;4988072;28;20061;-74
2023/06/21 05:47:10;;;;;;;31.75;25.38;;;;;;;21.25;82.21;98745.75;4985246;28;20035;-75
2023/06/21 05:49:35;;;;;;;27.95;23.75;;;;;;;21.39;81.24;98746.41;4991286;28;20038;-75
2023/06/21 05:52:01;;;;;;;27.38;23.20;;;;;;;21.23;81.39;98731.72;4992802;28;20033;-75
2023/06/21 05:54:26;;;;;;;27.70;24.17;;;;;;;21.34;81.93;98756.63;4988364;28;20606;-75
2023/06/21 05:56:52;;;;;;;25.83;22.95;;;;;;;21.43;81.46;98757.41;4992143;28;20034;-75
2023/06/21 05:59:18;;;;;;;29.38;24.77;;;;;;;21.26;81.99;98758.22;4995065;28;20057;-74
2023/06/21 06:01:43;;;;;;;27.55;24.65;;;;;;;21.27;83.62;98776.13;4996173;28;20425;-75
2023/06/21 06:04:09;;;;;;;28.65;23.85;;;;;;;21.28;83.81;98774.19;5000105;28;20038;-74
2023/06/21 06:06:41;;;;;;;30.10;26.73;;;;;;;21.39;82.89;98778.19;4998306;28;20068;-74
2023/06/21 06:09:11;;;;;;;29.05;23.58;;;;;;;21.62;80.56;98776.91;4991528;28;20039;-74
2023/06/21 06:11:36;;;;;;;34.63;27.73;;;;;;;21.48;83.93;98771.63;4986041;28;20033;-74
2023/06/21 06:14:02;;;;;;;27.50;23.08;;;;;;;21.70;80.01;98784.22;4992649;28;20101;-74
2023/06/21 06:16:28;;;;;;;26.75;23.55;;;;;;;21.67;80.27;98789.50;4994450;28;20056;-74
2023/06/21 06:18:54;;;;;;;30.08;25.90;;;;;;;21.45;84.04;98793.19;4994646;28;20038;-74
2023/06/21 06:21:22;;;;;;;26.90;24.05;;;;;;;21.62;83.25;98793.97;4997630;28;20527;-74
2023/06/21 06:23:52;;;;;;;26.95;22.17;;;;;;;21.83;79.32;98788.72;4991462;28;20030;-74
2023/06/21 06:26:22;;;;;;;28.30;21.10;;;;;;;21.81;79.66;98799.06;4996174;28;20384;-75
2023/06/21 06:28:52;;;;;;;23.67;21.20;;;;;;;21.95;78.96;98810.56;4994844;28;20303;-75
2023/06/21 06:31:29;;;;;;;25.45;20.33;;;;;;;21.97;79.22;98816.50;4991427;28;20033;-75
2023/06/21 06:33:55;;;;;;;21.25;18.95;;;;;;;22.12;79.30;98826.06;4994249;28;20034;-75
2023/06/21 06:36:20;;;;;;;19.30;17.30;;;;;;;22.07;77.92;98827.03;5004898;28;20046;-75
2023/06/21 06:38:46;;;;;;;19.15;17.23;;;;;;;22.09;78.74;98835.66;4993472;28;20105;-75
2023/06/21 06:41:12;;;;;;;19.15;16.27;;;;;;;22.19;77.89;98827.13;4995436;28;20109;-75
2023/06/21 06:43:37;;;;;;;16.42;14.82;;;;;;;22.25;77.58;98835.94;4994318;28;20129;-75
2023/06/21 06:46:02;;;;;;;17.90;13.82;;;;;;;22.12;78.48;98836.94;4990360;28;20046;-75
2023/06/21 06:48:28;;;;;;;17.08;13.68;;;;;;;22.24;77.34;98840.56;4998095;28;20029;-75
2023/06/21 06:50:53;;;;;;;17.67;12.35;;;;;;;22.20;78.08;98841.53;4997862;28;20026;-75
2023/06/21 06:53:19;;;;;;;16.80;12.57;;;;;;;22.30;77.29;98841.19;4997301;28;20027;-74
2023/06/21 06:55:44;;;;;;;16.30;13.15;;;;;;;22.31;77.21;98851.75;4998512;28;20030;-75
2023/06/21 06:58:10;;;;;;;17.45;11.82;;;;;;;22.27;77.04;98853.53;5001744;28;20596;-75
2023/06/21 07:00:36;;;;;;;12.45;10.85;;;;;;;22.35;76.50;98849.16;4994363;28;20037;-75
2023/06/21 07:03:01;;;;;;;12.18;10.75;;;;;;;22.44;76.27;98847.22;4987550;28;20026;-74
2023/06/21 07:05:27;;;;;;;10.55;9.52;;;;;;;22.34;77.00;98844.88;4975678;28;20058;-74
2023/06/21 07:07:53;;;;;;;13.32;10.02;;;;;;;22.31;76.67;98854.47;4989649;28;20062;-74
2023/06/21 07:10:19;;;;;;;10.63;9.63;;;;;;;22.36;75.44;98858.94;4975302;28;20427;-74
2023/06/21 07:12:45;;;;;;;10.20;9.20;;;;;;;22.45;75.18;98867.88;4973921;28;20027;-74
2023/06/21 07:15:10;;;;;;;10.30;9.32;;;;;;;22.44;76.72;98866.25;4989908;28;20034;-74
2023/06/21 07:17:36;;;;;;;9.85;8.85;;;;;;;22.41;75.97;98863.41;4975378;28;20037;-74
2023/06/21 07:20:01;;;;;;;13.18;8.82;;;;;;;22.51;75.21;98866.56;4984329;28;20034;-74
2023/06/21 07:22:27;;;;;;;11.82;9.95;;;;;;;22.54;74.88;98865.88;4985203;28;20021;-74
2023/06/21 07:24:52;;;;;;;11.52;9.73;;;;;;;22.57;76.35;98867.97;4980234;28;20543;-74
2023/06/21 07:27:17;;;;;;;11.07;9.10;;;;;;;22.44;75.58;98863.53;4983468;28;20091;-74
2023/06/21 07:29:43;;;;;;;11.10;9.10;;;;;;;22.61;75.22;98881.75;4981083;28;20038;-74
2023/06/21 07:32:09;;;;;;;12.13;9.65;;;;;;;22.70;75.27;98882.50;4977539;28;20030;-74
2023/06/21 07:34:34;;;;;;;11.80;8.88;;;;;;;22.65;75.17;98869.09;4988095;28;20080;-74
2023/06/21 07:36:59;;;;;;;10.98;8.45;;;;;;;22.70;75.16;98879.78;4998561;28;20038;-74
2023/06/21 07:39:25;;;;;;;10.38;8.48;;;;;;;22.71;74.93;98879.47;5004015;28;20041;-74
2023/06/21 07:41:50;;;;;;;9.85;8.52;;;;;;;22.75;74.47;98866.00;5000006;28;20049;-74
2023/06/21 07:44:17;;;;;;;11.07;9.15;;;;;;;22.74;75.37;98873.38;4996159;28;20080;-74
2023/06/21 07:46:43;;;;;;;12.05;9.35;;;;;;;22.58;75.86;98866.06;4994497;28;20038;-74
2023/06/21 07:49:08;;;;;;;11.80;8.48;;;;;;;22.70;75.05;98874.34;4989300;28;20049;-74
2023/06/21 07:51:34;;;;;;;15.80;9.88;;;;;;;22.82;74.70;98875.28;4997189;28;20408;-74
2023/06/21 07:53:59;;;;;;;12.63;8.40;;;;;;;22.81;74.99;98873.66;4997465;28;20404;-74
2023/06/21 07:56:24;;;;;;;9.70;8.80;;;;;;;22.68;75.03;98871.16;5009343;28;20030;-74
2023/06/21 07:58:50;;;;;;;9.52;8.60;;;;;;;22.60;75.68;98866.56;4994082;28;20052;-74
2023/06/21 08:01:15;;;;;;;10.98;8.77;;;;;;;22.68;74.70;98869.25;5024753;22;20567;-79
2023/06/21 08:03:40;;;;;;;15.13;7.80;;;;;;;22.75;75.77;98852.41;4997403;28;20520;-80
2023/06/21 08:06:06;;;;;;;11.75;8.90;;;;;;;22.74;74.44;98834.47;4998869;28;20030;-79
2023/06/21 08:08:31;;;;;;;10.77;8.57;;;;;;;22.78;74.59;98838.16;4994909;28;20026;-79
2023/06/21 08:10:56;;;;;;;8.48;7.55;;;;;;;22.78;74.36;98836.19;4988117;28;20121;-79
2023/06/21 08:13:22;;;;;;;15.20;8.10;;;;;;;22.96;73.36;98843.16;4992019;28;20026;-80
2023/06/21 08:15:49;;;;;;;11.05;7.75;;;;;;;23.02;73.20;98843.78;5004064;28;20514;-80
2023/06/21 08:18:15;;;;;;;10.40;8.15;;;;;;;22.95;74.71;98830.69;4995313;28;20030;-79
2023/06/21 08:20:40;;;;;;;9.45;7.25;;;;;;;23.21;72.50;98835.97;4987837;28;20528;-80
2023/06/21 08:23:07;;;;;;;9.27;8.10;;;;;;;23.26;72.25;98846.66;4986195;28;20062;-80
2023/06/21 08:25:32;;;;;;;9.63;7.32;;;;;;;23.39;71.61;98840.19;4999637;28;20026;-80
2023/06/21 08:27:58;;;;;;;9.63;8.20;;;;;;;23.36;72.31;98837.31;4998204;28;20037;-80
2023/06/21 08:30:24;;;;;;;10.07;7.47;;;;;;;23.40;72.24;98836.31;4997261;28;20045;-80
2023/06/21 08:32:50;;;;;;;13.75;7.95;;;;;;;23.54;71.70;98842.31;5003545;28;20145;-80
2023/06/21 08:35:16;;;;;;;7.63;6.82;;;;;;;23.69;70.87;98838.16;4993313;28;20546;-80
2023/06/21 08:37:53;;;;;;;11.25;7.90;;;;;;;23.68;70.71;98837.34;4995027;28;20038;-80
2023/06/21 08:40:23;;;;;;;10.15;7.88;;;;;;;23.65;71.43;98842.69;4992126;28;20035;-80
2023/06/21 08:42:48;;;;;;;9.13;7.10;;;;;;;23.80;70.86;98847.53;5001551;28;20018;-80
2023/06/21 08:45:14;;;;;;;9.25;6.57;;;;;;;23.82;70.75;98848.78;4979479;28;20520;-80
2023/06/21 08:47:41;;;;;;;13.07;7.38;;;;;;;23.84;70.51;98846.53;4970792;28;20035;-80
2023/06/21 08:50:08;;;;;;;9.25;8.23;;;;;;;23.93;70.61;98853.81;4997196;28;20963;-80
2023/06/21 08:52:35;;;;;;;8.93;6.70;;;;;;;23.97;70.78;98863.72;4998174;28;20433;-80
2023/06/21 08:55:06;;;;;;;9.57;7.97;;;;;;;24.01;70.97;98858.38;4997893;28;20487;-80
2023/06/21 08:57:41;;;;;;;10.35;7.68;;;;;;;24.17;69.10;98870.28;4994373;28;20080;-80
2023/06/21 09:00:12;;;;;;;8.32;7.45;;;;;;;24.22;68.68;98868.13;4990649;28;20034;-80
2023/06/21 09:02:46;;;;;;;9.30;7.70;;;;;;;24.19;69.02;98885.19;5002815;28;20018;-80
2023/06/21 09:05:23;;;;;;;9.32;8.23;;;;;;;24.16;68.96;98874.13;4983803;28;20035;-80
2023/06/21 09:07:49;;;;;;;7.85;7.07;;;;;;;24.27;68.24;98886.22;5001039;28;20040;-81
2023/06/21 09:10:16;;;;;;;11.38;7.25;;;;;;;24.35;69.57;98874.44;5005955;28;20441;-81
2023/06/21 09:12:44;;;;;;;8.68;7.07;;;;;;;24.31;68.08;98874.28;5007330;28;20397;-80
2023/06/21 09:15:11;;;;;;;8.30;7.00;;;;;;;24.34;68.20;98884.53;4981425;28;20442;-80
2023/06/21 09:17:38;;;;;;;8.25;7.28;;;;;;;24.34;68.10;98873.63;4981639;28;20512;-80
2023/06/21 09:20:04;;;;;;;7.95;7.13;;;;;;;24.42;67.88;98875.47;4984781;28;20038;-80
2023/06/21 09:22:30;;;;;;;7.50;6.70;;;;;;;24.46;68.42;98859.22;4994799;28;20022;-80
2023/06/21 09:24:56;;;;;;;8.23;7.03;;;;;;;24.48;67.51;98876.84;4990599;28;20044;-80
2023/06/21 09:27:22;;;;;;;8.57;7.22;;;;;;;24.50;68.03;98873.78;4995429;28;20038;-80
2023/06/21 09:29:48;;;;;;;6.97;6.28;;;;;;;24.65;67.34;98870.38;5003878;28;20031;-80
2023/06/21 09:32:13;;;;;;;9.90;6.93;;;;;;;24.70;67.66;98869.38;4985623;28;20117;-80
2023/06/21 09:34:39;;;;;;;7.68;6.78;;;;;;;24.74;66.29;98886.66;4993484;28;20029;-81
2023/06/21 09:37:04;;;;;;;7.35;6.65;;;;;;;24.77;68.05;98870.41;5005256;28;20395;-80
2023/06/21 09:39:29;;;;;;;7.25;6.55;;;;;;;24.76;65.98;98879.75;4987764;28;20092;-80
2023/06/21 09:41:55;;;;;;;8.82;7.47;;;;;;;24.93;66.09;98865.06;4993814;28;20103;-80
2023/06/21 09:44:21;;;;;;;8.45;7.35;;;;;;;25.20;65.11;98872.56;4973117;28;20069;-80
2023/06/21 09:46:57;;;;;;;8.35;6.97;;;;;;;25.26;66.13;98868.44;4992629;28;20062;-80
2023/06/21 09:49:26;;;;;;;7.95;6.60;;;;;;;25.55;64.51;98878.34;4976712;28;20311;-80
2023/06/21 09:51:52;;;;;;;9.57;6.72;;;;;;;25.74;64.26;98881.22;4991010;28;20061;-80
2023/06/21 09:54:17;;;;;;;8.85;6.70;;;;;;;25.72;64.01;98876.13;4990517;28;20030;-80
2023/06/21 09:56:44;;;;;;;8.02;7.10;;;;;;;25.81;63.81;98876.78;4991339;28;20091;-80
2023/06/21 09:59:18;;;;;;;7.45;6.38;;;;;;;25.82;63.77;98869.34;4991854;28;20030;-80
2023/06/21 10:01:45;;;;;;;7.95;6.20;;;;;;;25.87;64.03;98872.66;4991417;28;20121;-81
2023/06/21 10:04:15;;;;;;;13.35;7.47;;;;;;;25.70;64.38;98878.41;4992303;28;20038;-80
2023/06/21 10:06:51;;;;;;;9.32;6.95;;;;;;;25.84;63.73;98878.03;4992745;28;20116;-81
2023/06/21 10:09:17;;;;;;;7.88;7.07;;;;;;;26.06;63.22;98885.66;4987960;28;20113;-80
2023/06/21 10:11:45;;;;;;;6.82;6.20;;;;;;;26.06;63.35;98882.16;4993935;28;20093;-81
2023/06/21 10:14:38;;;;;;;6.88;6.18;;;;;;;26.17;62.72;98892.25;4993893;28;20050;-81
2023/06/21 10:17:04;;;;;;;9.13;6.90;;;;;;;26.08;63.14;98890.81;4993101;28;20050;-81
2023/06/21 10:19:29;;;;;;;8.55;6.78;;;;;;;25.98;63.82;98890.16;4993538;28;20026;-81
2023/06/21 10:22:14;;;;;;;7.72;6.90;;;;;;;26.32;62.78;98888.75;4993449;28;20037;-81
2023/06/21 10:24:46;;;;;;;11.52;6.90;;;;;;;26.31;62.45;98883.63;4992057;28;20034;-81
2023/06/21 10:27:12;;;;;;;7.65;6.95;;;;;;;26.35;62.60;98898.19;4980289;28;20054;-80
2023/06/21 10:29:41;;;;;;;7.93;7.13;;;;;;;26.13;61.65;98896.03;4973862;28;20038;-80
2023/06/21 10:32:07;;;;;;;7.18;6.45;;;;;;;26.35;62.32;98890.78;4988651;28;20026;-81
2023/06/21 10:34:55;;;;;;;6.95;6.25;;;;;;;26.35;62.55;98899.00;4973505;28;20134;-80
2023/06/21 10:37:50;;;;;;;9.43;6.15;;;;;;;26.40;62.26;98906.16;4973841;28;20054;-81
2023/06/21 10:40:17;;;;;;;7.45;6.75;;;;;;;26.68;61.56;98904.97;4954357;28;20931;-81
2023/06/21 10:42:44;;;;;;;7.95;6.07;;;;;;;26.73;61.36;98920.38;4990078;28;20027;-80
2023/06/21 10:45:11;;;;;;;7.57;6.88;;;;;;;26.59;61.90;98918.03;4992752;28;20121;-80
2023/06/21 10:47:38;;;;;;;8.88;6.03;;;;;;;26.50;62.28;98906.44;4991582;28;20038;-80
2023/06/21 10:50:05;;;;;;;7.80;5.90;;;;;;;26.78;61.46;98922.06;4992777;28;20022;-80
2023/06/21 10:52:30;;;;;;;7.93;6.72;;;;;;;26.83;61.56;98921.78;4993426;28;20039;-81
2023/06/21 10:54:59;;;;;;;8.23;6.85;;;;;;;26.98;61.13;98927.25;4993133;28;20030;-81
2023/06/21 10:57:26;;;;;;;10.85;6.35;;;;;;;27.21;60.50;98927.41;4992885;28;20042;-81
2023/06/21 10:59:55;;;;;;;8.70;6.75;;;;;;;27.19;60.51;98926.97;4992008;28;20100;-81
2023/06/21 11:02:22;;;;;;;7.78;7.07;;;;;;;27.26;60.42;98927.94;4991433;28;20023;-81
2023/06/21 11:05:16;;;;;;;8.18;6.90;;;;;;;27.34;60.13;98940.66;5002172;28;20026;-81
2023/06/21 11:08:09;;;;;;;6.43;5.82;;;;;;;27.34;59.73;98940.66;4970869;28;20023;-80
2023/06/21 11:10:46;;;;;;;7.07;6.43;;;;;;;27.29;60.33;98932.72;4972299;28;20050;-80
2023/06/21 11:13:13;;;;;;;7.38;6.20;;;;;;;27.23;60.07;98938.81;4972067;28;20483;-80
2023/06/21 11:15:40;;;;;;;7.20;6.50;;;;;;;27.35;59.76;98938.69;4971477;28;20033;-80
2023/06/21 11:18:08;;;;;;;7.22;6.63;;;;;;;27.50;58.94;98929.66;4985239;28;20096;-80
2023/06/21 11:20:51;;;;;;;7.45;6.53;;;;;;;27.53;59.52;98928.97;4991284;28;20034;-80
2023/06/21 11:23:25;;;;;;;6.90;5.78;;;;;;;27.70;60.09;98925.00;4991005;28;20037;-81
2023/06/21 11:25:51;;;;;;;7.85;6.22;;;;;;;27.97;58.07;98941.34;4975943;28;20080;-80